Hai Run — 9LU2533 — position and weather

sailwx.info

Track history (hours):
 
Tides and Currents Weather Stations Pressure Air Temp Water Temp Dewpoint Dewpoint Depression Visibility Wind Speed Wind Dir Waves Ship Positions

Hai Run

Last reported at 2018-Jan-20 22:05 UTC. Time now 2018-Jan-21 08:41 UTC.
Position N 34°01' E 130°01'.

Length 78 m; draft 5.4 m.

Type: Cargo ship. MMSI: 667001730.

Date/timePositionNaut miles runAvg speedWind from/ knotsBaromVisibWave heightAir tempDewpointWater temp
2018-Jan-20 22:05N 34°01' E 130°01'1 9.0
2018-Jan-20 22:01N 34°01' E 130°01'5 9.3
2018-Jan-20 21:30N 34°01' E 130°07'5 9.3
2018-Jan-20 21:00N 34°02' E 130°13'5 9.3
2018-Jan-20 20:30N 34°02' E 130°18'5 9.0
2018-Jan-20 20:00N 34°02' E 130°24'4 8.8
2018-Jan-20 19:30N 34°02' E 130°29'4 9.0
2018-Jan-20 19:01N 34°02' E 130°34'4 8.8
2018-Jan-20 18:30N 34°02' E 130°40'4 8.5
2018-Jan-20 18:01N 34°03' E 130°45'4 8.8
2018-Jan-20 17:30N 34°02' E 130°50'4 8.3
2018-Jan-20 17:00N 33°58' E 130°53'4 7.8
2018-Jan-20 16:30N 33°55' E 130°54'4 8.9
2018-Jan-20 16:01N 33°58' E 130°58'4 8.5
2018-Jan-20 15:30N 33°58' E 131°03'5 9.2
2018-Jan-20 15:00N 33°55' E 131°08'4 9.1
2018-Jan-20 14:31N 33°53' E 131°12'4 8.9
2018-Jan-20 14:00N 33°50' E 131°17'5 9.1
2018-Jan-20 13:30N 33°48' E 131°22'5 9.1
2018-Jan-20 13:00N 33°46' E 131°27'5 9.2
2018-Jan-20 12:31N 33°45' E 131°32'5 9.7
2018-Jan-20 12:00N 33°43' E 131°37'5 9.7
2018-Jan-20 11:31N 33°40' E 131°42'5 9.7
2018-Jan-20 11:01N 33°36' E 131°45'5 9.8
2018-Jan-20 10:31N 33°32' E 131°47'5 9.7
2018-Jan-20 10:00N 33°27' E 131°47'5 9.0
2018-Jan-20 09:30N 33°23' E 131°44'4 8.8
2018-Jan-20 09:00N 33°19' E 131°41'4 0.4
2018-Jan-19 23:59N 33°16' E 131°40'1 1.6
2018-Jan-19 23:31N 33°17' E 131°40'2 4.3
2018-Jan-19 23:00N 33°19' E 131°41'5 9.3
2018-Jan-19 22:30N 33°22' E 131°44'5 9.4
2018-Jan-19 22:00N 33°27' E 131°47'4 9.0
2018-Jan-19 21:30N 33°31' E 131°47'4 8.7
2018-Jan-19 21:00N 33°35' E 131°46'5 9.3
2018-Jan-19 20:30N 33°39' E 131°43'5 9.3
2018-Jan-19 20:01N 33°42' E 131°38'510.0
2018-Jan-19 19:31N 33°44' E 131°33'510.4
2018-Jan-19 18:59N 33°46' E 131°27'510.6
2018-Jan-19 18:30N 33°48' E 131°21'510.7
2018-Jan-19 18:00N 33°50' E 131°15'510.8
2018-Jan-19 17:30N 33°52' E 131°10'510.9
2018-Jan-19 17:00N 33°56' E 131°04'510.1
2018-Jan-19 16:31N 33°58' E 130°59'5 9.8
2018-Jan-19 16:00N 33°55' E 130°56'4 7.8
2018-Jan-19 15:30N 33°57' E 130°52'4 8.8
2018-Jan-19 15:00N 34°01' E 130°50'4 8.7
2018-Jan-19 14:30N 34°04' E 130°46'4 8.5
2018-Jan-19 14:00N 34°07' E 130°42'4 8.4
2018-Jan-19 13:31N 34°09' E 130°38'4 8.5
2018-Jan-19 13:01N 34°11' E 130°34'4 8.4
2018-Jan-19 12:30N 34°14' E 130°30'4 8.4
2018-Jan-19 12:00N 34°16' E 130°25'4 8.5
2018-Jan-19 11:30N 34°18' E 130°21'4 8.5
2018-Jan-19 11:00N 34°21' E 130°17'4 8.4
2018-Jan-19 10:30N 34°23' E 130°12'  
2018-Jan-11 18:03N 34°02' E 132°47'111.2
2018-Jan-11 18:00N 34°01' E 132°47'510.7
2018-Jan-11 17:30N 33°57' E 132°42'510.1
2018-Jan-11 16:58N 33°54' E 132°38'510.0
2018-Jan-11 16:30N 33°50' E 132°34'510.0
2018-Jan-11 16:00N 33°47' E 132°29'31 9.6
2018-Jan-11 12:48N 33°44' E 131°52'310.6
2018-Jan-11 12:30N 33°45' E 131°48'510.7
2018-Jan-11 12:00N 33°46' E 131°42'611.0
2018-Jan-11 11:27N 33°47' E 131°35'510.8
2018-Jan-11 11:00N 33°48' E 131°29'510.6
2018-Jan-11 10:30N 33°49' E 131°23'510.2
2018-Jan-11 10:00N 33°50' E 131°17'510.4
2018-Jan-11 09:30N 33°52' E 131°11'510.2
2018-Jan-11 09:00N 33°55' E 131°06'5 9.7
2018-Jan-11 08:30N 33°58' E 131°02'4 8.1
2018-Jan-11 08:00N 33°57' E 130°57'4 7.0
2018-Jan-11 07:30N 33°54' E 130°54'4 8.1
2018-Jan-11 07:01N 33°58' E 130°53'5 9.1
2018-Jan-11 06:30N 34°02' E 130°49'5 9.7
2018-Jan-11 06:00N 34°05' E 130°44'5 9.7
2018-Jan-11 05:30N 34°08' E 130°40'5 9.8
2018-Jan-11 05:00N 34°11' E 130°36'5 9.8
2018-Jan-11 04:30N 34°14' E 130°31'5 9.9
2018-Jan-11 04:00N 34°17' E 130°26'510.0
2018-Jan-11 03:30N 34°20' E 130°21'510.2
2018-Jan-11 03:00N 34°23' E 130°16'510.3
2018-Jan-11 02:30N 34°26' E 130°10'  
Track history (hours):
 
Tides and Currents Weather Stations Pressure Air Temp Water Temp Dewpoint Dewpoint Depression Visibility Wind Speed Wind Dir Waves Ship Positions

Hai Run

Last reported at 2018-Jan-20 22:05 UTC. Time now 2018-Jan-21 08:41 UTC.
Position N 34°01' E 130°01'.

Length 78 m; draft 5.4 m.

Type: Cargo ship. MMSI: 667001730.

Date/timePositionNaut miles runAvg speedWind from/ knotsBaromVisibWave heightAir tempDewpointWater temp
2018-Jan-20 22:05N 34°01' E 130°01'1 9.0
2018-Jan-20 22:01N 34°01' E 130°01'5 9.3
2018-Jan-20 21:30N 34°01' E 130°07'5 9.3
2018-Jan-20 21:00N 34°02' E 130°13'5 9.3
2018-Jan-20 20:30N 34°02' E 130°18'5 9.0
2018-Jan-20 20:00N 34°02' E 130°24'4 8.8
2018-Jan-20 19:30N 34°02' E 130°29'4 9.0
2018-Jan-20 19:01N 34°02' E 130°34'4 8.8
2018-Jan-20 18:30N 34°02' E 130°40'4 8.5
2018-Jan-20 18:01N 34°03' E 130°45'4 8.8
2018-Jan-20 17:30N 34°02' E 130°50'4 8.3
2018-Jan-20 17:00N 33°58' E 130°53'4 7.8
2018-Jan-20 16:30N 33°55' E 130°54'4 8.9
2018-Jan-20 16:01N 33°58' E 130°58'4 8.5
2018-Jan-20 15:30N 33°58' E 131°03'5 9.2
2018-Jan-20 15:00N 33°55' E 131°08'4 9.1
2018-Jan-20 14:31N 33°53' E 131°12'4 8.9
2018-Jan-20 14:00N 33°50' E 131°17'5 9.1
2018-Jan-20 13:30N 33°48' E 131°22'5 9.1
2018-Jan-20 13:00N 33°46' E 131°27'5 9.2
2018-Jan-20 12:31N 33°45' E 131°32'5 9.7
2018-Jan-20 12:00N 33°43' E 131°37'5 9.7
2018-Jan-20 11:31N 33°40' E 131°42'5 9.7
2018-Jan-20 11:01N 33°36' E 131°45'5 9.8
2018-Jan-20 10:31N 33°32' E 131°47'5 9.7
2018-Jan-20 10:00N 33°27' E 131°47'5 9.0
2018-Jan-20 09:30N 33°23' E 131°44'4 8.8
2018-Jan-20 09:00N 33°19' E 131°41'4 0.4
2018-Jan-19 23:59N 33°16' E 131°40'1 1.6
2018-Jan-19 23:31N 33°17' E 131°40'2 4.3
2018-Jan-19 23:00N 33°19' E 131°41'5 9.3
2018-Jan-19 22:30N 33°22' E 131°44'5 9.4
2018-Jan-19 22:00N 33°27' E 131°47'4 9.0
2018-Jan-19 21:30N 33°31' E 131°47'4 8.7
2018-Jan-19 21:00N 33°35' E 131°46'5 9.3
2018-Jan-19 20:30N 33°39' E 131°43'5 9.3
2018-Jan-19 20:01N 33°42' E 131°38'510.0
2018-Jan-19 19:31N 33°44' E 131°33'510.4
2018-Jan-19 18:59N 33°46' E 131°27'510.6
2018-Jan-19 18:30N 33°48' E 131°21'510.7
2018-Jan-19 18:00N 33°50' E 131°15'510.8
2018-Jan-19 17:30N 33°52' E 131°10'510.9
2018-Jan-19 17:00N 33°56' E 131°04'510.1
2018-Jan-19 16:31N 33°58' E 130°59'5 9.8
2018-Jan-19 16:00N 33°55' E 130°56'4 7.8
2018-Jan-19 15:30N 33°57' E 130°52'4 8.8
2018-Jan-19 15:00N 34°01' E 130°50'4 8.7
2018-Jan-19 14:30N 34°04' E 130°46'4 8.5
2018-Jan-19 14:00N 34°07' E 130°42'4 8.4
2018-Jan-19 13:31N 34°09' E 130°38'4 8.5
2018-Jan-19 13:01N 34°11' E 130°34'4 8.4
2018-Jan-19 12:30N 34°14' E 130°30'4 8.4
2018-Jan-19 12:00N 34°16' E 130°25'4 8.5
2018-Jan-19 11:30N 34°18' E 130°21'4 8.5
2018-Jan-19 11:00N 34°21' E 130°17'4 8.4
2018-Jan-19 10:30N 34°23' E 130°12'  
2018-Jan-11 18:03N 34°02' E 132°47'111.2
2018-Jan-11 18:00N 34°01' E 132°47'510.7
2018-Jan-11 17:30N 33°57' E 132°42'510.1
2018-Jan-11 16:58N 33°54' E 132°38'510.0
2018-Jan-11 16:30N 33°50' E 132°34'510.0
2018-Jan-11 16:00N 33°47' E 132°29'31 9.6
2018-Jan-11 12:48N 33°44' E 131°52'310.6
2018-Jan-11 12:30N 33°45' E 131°48'510.7
2018-Jan-11 12:00N 33°46' E 131°42'611.0
2018-Jan-11 11:27N 33°47' E 131°35'510.8
2018-Jan-11 11:00N 33°48' E 131°29'510.6
2018-Jan-11 10:30N 33°49' E 131°23'510.2
2018-Jan-11 10:00N 33°50' E 131°17'510.4
2018-Jan-11 09:30N 33°52' E 131°11'510.2
2018-Jan-11 09:00N 33°55' E 131°06'5 9.7
2018-Jan-11 08:30N 33°58' E 131°02'4 8.1
2018-Jan-11 08:00N 33°57' E 130°57'4 7.0
2018-Jan-11 07:30N 33°54' E 130°54'4 8.1
2018-Jan-11 07:01N 33°58' E 130°53'5 9.1
2018-Jan-11 06:30N 34°02' E 130°49'5 9.7
2018-Jan-11 06:00N 34°05' E 130°44'5 9.7
2018-Jan-11 05:30N 34°08' E 130°40'5 9.8
2018-Jan-11 05:00N 34°11' E 130°36'5 9.8
2018-Jan-11 04:30N 34°14' E 130°31'5 9.9
2018-Jan-11 04:00N 34°17' E 130°26'510.0
2018-Jan-11 03:30N 34°20' E 130°21'510.2
2018-Jan-11 03:00N 34°23' E 130°16'510.3
2018-Jan-11 02:30N 34°26' E 130°10'  

Dump ship's entire track history